Time;durP1;ratioP1;P1;durP2;ratioP2;P2;SDS_P1;SDS_P2;PMS_P1;PMS_P2;Temp;Humidity;BMP_temperature;BMP_pressure;BME280_temperature;BME280_humidity;BME280_pressure;Samples;Min_cycle;Max_cycle;Signal;HPM_P1;HPM_P2
2023/06/19 00:01:42;;;;;;;4.05;3.60;;;;;;;21.82;64.85;100786.00;5089102;28;20032;-37
2023/06/19 00:04:09;;;;;;;6.38;3.90;;;;;;;21.82;65.21;100797.84;5089597;28;20036;-37
2023/06/19 00:06:34;;;;;;;4.22;3.78;;;;;;;21.84;65.38;100801.06;5089448;28;20074;-37
2023/06/19 00:08:59;;;;;;;6.47;4.03;;;;;;;21.81;65.42;100806.38;5089629;28;20032;-37
2023/06/19 00:11:25;;;;;;;4.55;3.80;;;;;;;21.77;65.71;100811.69;5079713;28;20075;-37
2023/06/19 00:13:50;;;;;;;4.45;3.35;;;;;;;21.75;65.61;100813.13;5075342;28;20085;-37
2023/06/19 00:16:15;;;;;;;4.68;3.85;;;;;;;21.68;65.78;100818.22;5075560;28;20100;-37
2023/06/19 00:18:41;;;;;;;4.53;3.78;;;;;;;21.66;66.44;100815.75;5075248;28;20130;-37
2023/06/19 00:21:08;;;;;;;4.05;3.65;;;;;;;21.56;66.78;100821.47;5075620;28;20029;-37
2023/06/19 00:23:34;;;;;;;4.97;4.22;;;;;;;21.53;66.76;100817.41;5075143;28;20032;-37
2023/06/19 00:26:01;;;;;;;6.53;3.50;;;;;;;21.47;66.84;100813.13;5075148;28;20024;-37
2023/06/19 00:28:27;;;;;;;4.15;3.75;;;;;;;21.47;67.13;100829.63;5075086;28;20038;-37
2023/06/19 00:30:53;;;;;;;6.13;4.18;;;;;;;21.47;67.42;100834.28;5075778;28;20103;-37
2023/06/19 00:33:18;;;;;;;5.20;4.13;;;;;;;21.39;67.67;100830.34;5074657;28;20067;-37
2023/06/19 00:35:44;;;;;;;4.50;4.10;;;;;;;21.29;67.98;100831.31;5075445;28;20020;-37
2023/06/19 00:38:09;;;;;;;7.18;4.22;;;;;;;21.30;68.10;100845.88;5074880;28;20031;-37
2023/06/19 00:40:35;;;;;;;4.00;3.60;;;;;;;21.22;68.37;100850.13;5074878;28;20040;-37
2023/06/19 00:43:01;;;;;;;4.97;3.85;;;;;;;21.08;68.92;100844.59;5074783;28;20032;-37
2023/06/19 00:45:26;;;;;;;4.07;3.67;;;;;;;21.02;69.29;100844.97;5074724;28;20036;-37
2023/06/19 00:47:56;;;;;;;4.82;3.85;;;;;;;21.04;69.47;100859.25;5074661;28;20361;-37
2023/06/19 00:50:22;;;;;;;5.20;3.92;;;;;;;20.98;69.53;100849.44;5075177;28;20104;-37
2023/06/19 00:52:48;;;;;;;4.20;3.75;;;;;;;20.93;69.51;100844.84;5074637;28;20042;-37
2023/06/19 00:55:15;;;;;;;3.92;3.63;;;;;;;20.96;69.79;100862.69;5075306;28;20021;-36
2023/06/19 00:57:41;;;;;;;4.30;3.80;;;;;;;20.97;69.96;100861.56;5074541;28;20029;-37
2023/06/19 01:00:07;;;;;;;4.28;3.30;;;;;;;20.83;70.41;100853.25;5074672;28;20063;-37
2023/06/19 01:02:33;;;;;;;4.30;3.90;;;;;;;20.79;71.26;100855.81;5074993;28;20085;-37
2023/06/19 01:04:59;;;;;;;3.70;3.40;;;;;;;20.79;70.83;100861.31;5074329;28;20036;-37
2023/06/19 01:07:40;;;;;;;5.82;3.30;;;;;;;20.78;71.29;100870.63;5074901;28;20033;-37
2023/06/19 01:10:08;;;;;;;3.45;3.15;;;;;;;20.73;71.66;100867.16;5074766;28;20043;-37
2023/06/19 01:12:38;;;;;;;3.75;3.00;;;;;;;20.76;71.81;100874.81;5074753;28;20021;-37
2023/06/19 01:15:05;;;;;;;4.10;3.20;;;;;;;20.69;72.50;100868.88;5074503;28;20047;-37
2023/06/19 01:17:31;;;;;;;4.82;3.38;;;;;;;20.66;72.95;100875.78;5074171;28;20016;-37
2023/06/19 01:19:58;;;;;;;4.13;3.60;;;;;;;20.58;73.23;100874.50;5073713;28;20493;-37
2023/06/19 01:22:30;;;;;;;4.55;3.38;;;;;;;20.57;73.55;100880.31;5073076;28;20033;-37
2023/06/19 01:24:56;;;;;;;4.43;3.20;;;;;;;20.57;73.59;100883.06;5074804;28;20086;-37
2023/06/19 01:27:23;;;;;;;4.03;3.55;;;;;;;20.50;74.07;100888.94;5074210;28;20028;-37
2023/06/19 01:29:48;;;;;;;5.57;3.55;;;;;;;20.46;74.63;100884.28;5073833;28;20046;-37
2023/06/19 01:32:23;;;;;;;5.47;3.10;;;;;;;20.44;74.85;100883.75;5073862;28;20028;-37
2023/06/19 01:34:50;;;;;;;3.92;3.42;;;;;;;20.42;74.76;100884.06;5073789;28;20559;-37
2023/06/19 01:37:16;;;;;;;4.35;3.33;;;;;;;20.44;74.96;100892.00;5073807;28;20024;-37
2023/06/19 01:39:43;;;;;;;3.70;3.25;;;;;;;20.41;75.35;100898.09;5074085;28;20116;-37
2023/06/19 01:42:11;;;;;;;4.53;3.28;;;;;;;20.29;76.59;100896.59;5074189;28;20038;-37
2023/06/19 01:44:36;;;;;;;4.82;3.35;;;;;;;20.27;76.55;100893.31;5073660;28;20020;-37
2023/06/19 01:47:10;;;;;;;5.53;3.30;;;;;;;20.29;77.00;100898.50;5073631;28;20028;-37
2023/06/19 01:49:35;;;;;;;3.28;2.97;;;;;;;20.33;77.41;100905.06;5073537;28;20079;-37
2023/06/19 01:52:01;;;;;;;5.05;3.10;;;;;;;20.26;78.04;100907.38;5073477;28;20056;-37
2023/06/19 01:54:27;;;;;;;3.53;3.22;;;;;;;20.22;77.60;100892.59;5073171;28;20029;-37
2023/06/19 01:56:53;;;;;;;3.65;3.20;;;;;;;20.17;78.48;100909.94;5073633;28;20090;-37
2023/06/19 01:59:18;;;;;;;3.22;2.85;;;;;;;20.05;78.52;100898.53;5073675;28;20057;-37
2023/06/19 02:01:43;;;;;;;4.00;3.17;;;;;;;20.11;79.23;100913.03;5073261;28;20025;-37
2023/06/19 02:04:09;;;;;;;3.47;3.17;;;;;;;20.06;79.50;100911.19;5073707;28;20107;-37
2023/06/19 02:06:34;;;;;;;3.47;2.95;;;;;;;19.97;79.87;100908.25;5073526;28;20074;-37
2023/06/19 02:09:00;;;;;;;3.78;3.30;;;;;;;19.95;80.36;100920.63;5072832;28;20029;-37
2023/06/19 02:11:25;;;;;;;6.20;3.10;;;;;;;19.95;80.72;100917.88;5073433;28;20025;-37
2023/06/19 02:13:50;;;;;;;3.45;3.05;;;;;;;19.89;81.56;100905.31;5073081;28;20024;-37
2023/06/19 02:16:16;;;;;;;4.47;3.22;;;;;;;19.94;81.67;100916.25;5073356;28;20479;-37
2023/06/19 02:18:41;;;;;;;4.65;3.10;;;;;;;19.87;82.25;100913.84;5072948;28;20333;-37
2023/06/19 02:21:06;;;;;;;3.97;2.83;;;;;;;19.89;83.04;100932.78;5072998;28;20039;-37
2023/06/19 02:23:32;;;;;;;7.80;2.55;;;;;;;19.84;83.20;100925.41;5072941;28;20025;-37
2023/06/19 02:25:57;;;;;;;2.97;2.42;;;;;;;19.87;83.96;100924.03;5073288;28;20027;-37
2023/06/19 02:28:23;;;;;;;2.63;2.38;;;;;;;19.79;84.74;100912.56;5072854;28;20038;-37
2023/06/19 02:30:48;;;;;;;3.10;2.40;;;;;;;19.83;84.89;100934.75;5072854;28;20063;-37
2023/06/19 02:33:13;;;;;;;2.67;2.22;;;;;;;19.83;85.14;100934.75;5072898;28;20020;-37
2023/06/19 02:35:41;;;;;;;2.30;2.10;;;;;;;19.83;85.25;100925.72;5073280;28;20120;-36
2023/06/19 02:38:07;;;;;;;2.47;2.13;;;;;;;19.80;86.01;100927.91;5073013;28;20029;-37
2023/06/19 02:40:32;;;;;;;2.97;2.15;;;;;;;19.73;86.85;100908.25;5072983;28;20028;-37
2023/06/19 02:42:57;;;;;;;2.58;2.00;;;;;;;19.71;86.86;100913.19;5072671;28;20403;-37
2023/06/19 02:45:23;;;;;;;2.90;2.05;;;;;;;19.74;87.07;100926.34;5072937;28;20028;-37
2023/06/19 02:47:50;;;;;;;5.43;1.95;;;;;;;19.69;87.87;100928.31;5072608;28;20028;-37
2023/06/19 02:50:15;;;;;;;4.55;1.83;;;;;;;19.64;88.15;100920.94;5072817;28;20028;-37
2023/06/19 02:52:40;;;;;;;2.83;1.80;;;;;;;19.59;88.55;100917.41;5073279;28;20043;-37
2023/06/19 02:55:08;;;;;;;2.47;2.00;;;;;;;19.58;89.31;100926.75;5072348;28;20052;-37
2023/06/19 02:57:33;;;;;;;2.92;1.80;;;;;;;19.58;89.60;100922.09;5072336;28;20025;-37
2023/06/19 02:59:59;;;;;;;3.38;2.00;;;;;;;19.48;90.50;100941.38;5072907;28;20131;-37
2023/06/19 03:02:24;;;;;;;1.98;1.70;;;;;;;19.44;91.07;100945.81;5073335;28;20507;-37
2023/06/19 03:04:50;;;;;;;2.35;1.85;;;;;;;19.40;91.72;100940.06;5073233;28;20059;-37
2023/06/19 03:07:16;;;;;;;3.80;2.10;;;;;;;19.38;91.96;100941.47;5073059;28;20020;-37
2023/06/19 03:09:41;;;;;;;1.75;1.60;;;;;;;19.29;92.54;100931.13;5072512;28;20487;-37
2023/06/19 03:12:08;;;;;;;2.78;2.25;;;;;;;19.27;93.90;100938.78;5072780;28;20029;-37
2023/06/19 03:14:33;;;;;;;4.03;2.20;;;;;;;19.21;94.45;100944.63;5072139;28;20445;-37
2023/06/19 03:16:58;;;;;;;3.20;1.80;;;;;;;19.21;94.87;100944.63;5072637;28;20066;-37
2023/06/19 03:19:24;;;;;;;2.50;1.70;;;;;;;19.22;94.78;100958.03;5072305;28;20384;-37
2023/06/19 03:21:49;;;;;;;3.55;2.08;;;;;;;19.23;95.38;100954.19;5072791;28;20028;-37
2023/06/19 03:24:14;;;;;;;2.15;1.83;;;;;;;19.16;95.06;100955.63;5073089;28;20036;-37
2023/06/19 03:26:40;;;;;;;3.30;1.80;;;;;;;19.18;96.05;100959.72;5072660;28;20111;-37
2023/06/19 03:29:05;;;;;;;5.85;1.90;;;;;;;19.19;95.61;100952.31;5072278;28;20035;-37
2023/06/19 03:31:31;;;;;;;2.95;2.08;;;;;;;19.14;96.05;100955.91;5072080;28;20528;-37
2023/06/19 03:33:56;;;;;;;4.90;2.10;;;;;;;19.13;96.58;100961.66;5072581;28;20044;-37
2023/06/19 03:36:22;;;;;;;2.63;1.58;;;;;;;19.15;97.00;100965.75;5072210;28;20056;-37
2023/06/19 03:38:48;;;;;;;2.45;1.85;;;;;;;19.08;97.50;100967.19;5072598;28;20099;-36
2023/06/19 03:41:13;;;;;;;2.70;1.83;;;;;;;19.20;97.31;100976.69;5072012;28;20035;-36
2023/06/19 03:43:39;;;;;;;3.20;2.10;;;;;;;19.18;98.21;100975.31;5072696;28;20449;-37
2023/06/19 03:46:05;;;;;;;3.85;2.00;;;;;;;19.06;98.63;100964.72;5073629;28;20024;-37
2023/06/19 03:48:30;;;;;;;3.90;2.00;;;;;;;19.14;97.93;100972.34;5076560;28;20050;-37
2023/06/19 03:50:55;;;;;;;3.33;2.00;;;;;;;19.20;98.29;100987.66;5075852;28;20053;-37
2023/06/19 03:53:21;;;;;;;3.08;2.25;;;;;;;19.23;98.29;100994.50;5075820;28;20027;-37
2023/06/19 03:55:47;;;;;;;4.22;2.17;;;;;;;19.20;98.79;100992.31;5075982;28;20096;-37
2023/06/19 03:58:12;;;;;;;3.25;2.38;;;;;;;19.20;98.91;100993.13;5075700;28;20093;-37
2023/06/19 04:00:37;;;;;;;3.00;2.33;;;;;;;19.21;99.14;100994.78;5075436;28;20056;-37
2023/06/19 04:03:03;;;;;;;2.92;2.30;;;;;;;19.25;99.03;100990.38;5075886;28;20027;-37
2023/06/19 04:05:28;;;;;;;3.10;2.65;;;;;;;19.25;98.63;100995.84;5076027;28;20059;-37
2023/06/19 04:07:53;;;;;;;2.85;2.42;;;;;;;19.15;99.71;100993.19;5075508;28;20464;-37
2023/06/19 04:10:19;;;;;;;2.67;2.28;;;;;;;19.15;100.00;101006.88;5075722;28;20384;-37
2023/06/19 04:12:45;;;;;;;3.75;2.60;;;;;;;19.16;100.00;100991.25;5075038;28;20032;-37
2023/06/19 04:15:11;;;;;;;3.97;2.67;;;;;;;19.22;100.00;101001.88;5075652;28;20035;-37
2023/06/19 04:17:36;;;;;;;3.22;2.63;;;;;;;19.16;100.00;101008.50;5074261;28;20039;-37
2023/06/19 04:20:10;;;;;;;3.30;2.33;;;;;;;19.30;100.00;101012.25;5075397;28;20472;-37
2023/06/19 04:22:36;;;;;;;4.45;2.75;;;;;;;19.26;100.00;101026.81;5075707;28;20025;-37
2023/06/19 04:25:01;;;;;;;5.25;3.17;;;;;;;19.26;100.00;101019.41;5074874;28;20029;-37
2023/06/19 04:27:27;;;;;;;3.60;2.55;;;;;;;19.25;100.00;101030.66;5075648;28;20086;-37
2023/06/19 04:29:52;;;;;;;5.78;2.80;;;;;;;19.19;100.00;101029.88;5075413;28;20361;-37
2023/06/19 04:32:18;;;;;;;4.97;2.90;;;;;;;19.23;100.00;101030.97;5075477;28;20099;-37
2023/06/19 04:34:45;;;;;;;3.08;2.67;;;;;;;19.24;100.00;101032.59;5075376;28;20028;-37
2023/06/19 04:37:11;;;;;;;3.83;2.85;;;;;;;19.25;100.00;101038.91;5074952;28;20031;-37
2023/06/19 04:39:37;;;;;;;3.38;2.70;;;;;;;19.16;100.00;101029.63;5075050;28;20036;-37
2023/06/19 04:42:02;;;;;;;3.28;2.80;;;;;;;19.22;100.00;101045.75;5074850;28;20530;-37
2023/06/19 04:44:29;;;;;;;3.28;2.78;;;;;;;19.22;100.00;101047.66;5074957;28;20059;-37
2023/06/19 04:47:00;;;;;;;3.15;2.55;;;;;;;19.29;100.00;101038.03;5075429;28;20469;-37
2023/06/19 04:49:29;;;;;;;3.80;2.80;;;;;;;19.28;100.00;101055.59;5075471;28;20043;-37
2023/06/19 04:51:55;;;;;;;5.05;3.15;;;;;;;19.24;100.00;101053.72;5075315;28;20448;-37
2023/06/19 04:54:20;;;;;;;4.18;2.70;;;;;;;19.28;100.00;101055.59;5074486;28;20028;-37
2023/06/19 04:56:45;;;;;;;9.35;3.42;;;;;;;19.33;100.00;101048.44;5074394;28;20539;-37
2023/06/19 04:59:11;;;;;;;4.30;2.58;;;;;;;19.32;100.00;101044.03;5075373;28;20091;-37
2023/06/19 05:01:40;;;;;;;3.50;2.75;;;;;;;19.31;100.00;101048.72;5074857;28;20020;-37
2023/06/19 05:04:06;;;;;;;3.00;2.63;;;;;;;19.42;100.00;101052.19;5074488;28;20409;-37
2023/06/19 05:06:31;;;;;;;4.15;2.92;;;;;;;19.34;100.00;101048.16;5074705;28;20074;-36
2023/06/19 05:08:56;;;;;;;4.50;3.28;;;;;;;19.34;100.00;101039.94;5074321;28;20044;-37
2023/06/19 05:11:22;;;;;;;3.83;3.22;;;;;;;19.35;100.00;101049.78;5074804;28;20108;-37
2023/06/19 05:13:47;;;;;;;4.68;3.13;;;;;;;19.35;100.00;101049.78;5074633;28;20140;-37
2023/06/19 05:16:16;;;;;;;3.60;3.13;;;;;;;19.38;100.00;101053.91;5074096;28;20040;-37
2023/06/19 05:18:42;;;;;;;4.03;3.35;;;;;;;19.41;100.00;101048.63;5074489;28;20028;-37
2023/06/19 05:21:08;;;;;;;3.85;3.30;;;;;;;19.38;100.00;101042.94;5074535;28;20487;-37
2023/06/19 05:23:33;;;;;;;3.53;3.20;;;;;;;19.47;100.00;101058.50;5073810;28;20060;-36
2023/06/19 05:25:59;;;;;;;4.32;3.53;;;;;;;19.50;100.00;101066.13;5074477;28;20460;-36
2023/06/19 05:28:24;;;;;;;4.20;3.63;;;;;;;19.54;100.00;101058.97;5074486;28;20440;-37
2023/06/19 05:30:50;;;;;;;3.58;3.28;;;;;;;19.49;100.00;101066.44;5074400;28;20135;-37
2023/06/19 05:33:15;;;;;;;4.03;3.22;;;;;;;19.58;100.00;101064.72;5073031;28;20052;-37
2023/06/19 05:35:43;;;;;;;5.60;3.40;;;;;;;19.52;100.00;101069.44;5074205;28;20044;-37
2023/06/19 05:38:08;;;;;;;6.57;4.18;;;;;;;19.53;100.00;101068.31;5073671;28;20406;-37
2023/06/19 05:40:34;;;;;;;5.57;3.50;;;;;;;19.50;100.00;101068.88;5073701;28;20036;-37
2023/06/19 05:42:59;;;;;;;7.03;3.53;;;;;;;19.60;100.00;101078.97;5073691;28;20027;-37
2023/06/19 05:45:24;;;;;;;4.95;3.63;;;;;;;19.57;100.00;101071.31;5073864;28;20108;-37
2023/06/19 05:47:50;;;;;;;4.10;3.70;;;;;;;19.59;100.00;101077.31;5073660;28;20428;-37
2023/06/19 05:50:15;;;;;;;4.53;3.70;;;;;;;19.72;100.00;101075.91;5073909;28;20112;-37
2023/06/19 05:52:43;;;;;;;5.97;3.78;;;;;;;19.81;100.00;101079.63;5073255;28;20031;-37
2023/06/19 05:55:09;;;;;;;4.03;3.30;;;;;;;19.93;100.00;101087.50;5073940;28;20353;-37
2023/06/19 05:57:34;;;;;;;6.80;4.15;;;;;;;19.94;100.00;101087.22;5073678;28;20024;-37
2023/06/19 06:00:00;;;;;;;5.43;3.78;;;;;;;20.02;100.00;101086.59;5072876;28;20557;-37
2023/06/19 06:02:25;;;;;;;5.50;3.60;;;;;;;19.97;99.95;101083.91;5073115;28;20047;-37
2023/06/19 06:04:51;;;;;;;6.82;3.83;;;;;;;20.00;98.04;101071.50;5073320;28;20024;-37
2023/06/19 06:07:16;;;;;;;6.90;4.18;;;;;;;20.21;97.58;101088.63;5073823;28;20090;-37
2023/06/19 06:09:41;;;;;;;5.25;3.28;;;;;;;20.30;95.61;101084.97;5073046;28;20115;-37
2023/06/19 06:12:07;;;;;;;5.43;3.83;;;;;;;20.43;93.03;101088.13;5073211;28;20078;-37
2023/06/19 06:14:33;;;;;;;4.43;3.33;;;;;;;20.48;92.84;101104.56;5073809;28;20021;-37
2023/06/19 06:16:58;;;;;;;4.30;3.90;;;;;;;20.44;90.91;101098.81;5073176;28;20025;-37
2023/06/19 06:19:23;;;;;;;4.50;3.42;;;;;;;20.44;91.22;101098.00;5073260;28;20029;-37
2023/06/19 06:21:49;;;;;;;3.97;3.58;;;;;;;20.49;90.33;101120.75;5073133;28;20464;-37
2023/06/19 06:24:15;;;;;;;5.10;4.28;;;;;;;20.61;89.50;101120.38;5072689;28;20021;-37
2023/06/19 06:26:41;;;;;;;3.90;3.50;;;;;;;20.72;89.51;101121.91;5072994;28;20062;-37
2023/06/19 06:29:07;;;;;;;4.50;4.10;;;;;;;20.70;87.91;101128.81;5072921;28;20056;-37
2023/06/19 06:31:33;;;;;;;4.55;4.13;;;;;;;20.76;88.37;101128.44;5072946;28;20039;-37
2023/06/19 06:33:59;;;;;;;5.55;4.40;;;;;;;20.76;87.20;101133.13;5073224;28;20020;-37
2023/06/19 06:36:24;;;;;;;4.55;3.70;;;;;;;20.83;86.75;101134.41;5072905;28;20028;-37
2023/06/19 06:38:50;;;;;;;4.93;4.40;;;;;;;20.89;85.50;101132.44;5072778;28;20058;-37
2023/06/19 06:41:15;;;;;;;6.47;5.28;;;;;;;20.99;84.16;101137.81;5072991;28;20028;-37
2023/06/19 06:43:43;;;;;;;6.70;4.75;;;;;;;21.02;83.22;101142.69;5071480;28;20418;-37
2023/06/19 06:46:10;;;;;;;4.80;4.38;;;;;;;21.00;83.25;101141.38;5073264;28;20030;-37
2023/06/19 06:48:36;;;;;;;8.88;5.50;;;;;;;21.04;82.74;101145.16;5072964;28;20052;-37
2023/06/19 06:51:01;;;;;;;4.82;4.43;;;;;;;21.05;83.36;101135.81;5073312;28;20028;-37
2023/06/19 06:53:28;;;;;;;5.00;4.50;;;;;;;21.12;82.89;101150.00;5072990;28;20449;-37
2023/06/19 06:55:54;;;;;;;5.22;4.72;;;;;;;21.14;82.13;101150.53;5072467;28;20032;-37
2023/06/19 06:58:19;;;;;;;5.18;4.68;;;;;;;21.23;81.63;101169.97;5072685;28;20412;-37
2023/06/19 07:00:45;;;;;;;5.22;4.65;;;;;;;21.17;81.34;101155.44;5073219;28;20122;-37
2023/06/19 07:03:10;;;;;;;4.93;4.45;;;;;;;21.21;80.81;101161.19;5072870;28;20054;-37
2023/06/19 07:05:36;;;;;;;6.35;5.30;;;;;;;21.13;80.56;101159.91;5073203;28;20453;-37
2023/06/19 07:08:02;;;;;;;6.47;4.78;;;;;;;21.11;81.32;101164.88;5072942;28;20039;-37
2023/06/19 07:10:27;;;;;;;5.82;5.22;;;;;;;21.26;80.82;101170.16;5073319;28;20029;-37
2023/06/19 07:12:52;;;;;;;6.00;4.85;;;;;;;21.39;79.32;101176.94;5072282;28;20606;-37
2023/06/19 07:15:18;;;;;;;5.47;4.88;;;;;;;21.49;79.62;101185.03;5073142;28;20376;-37
2023/06/19 07:17:44;;;;;;;5.88;5.35;;;;;;;21.49;78.71;101167.72;5072806;28;20100;-39
2023/06/19 07:20:10;;;;;;;5.43;4.72;;;;;;;21.66;78.66;101179.00;5072084;28;20491;-36
2023/06/19 07:22:36;;;;;;;6.28;5.30;;;;;;;21.65;78.26;101176.56;5076858;28;20017;-37
2023/06/19 07:25:03;;;;;;;5.53;5.03;;;;;;;21.72;78.50;101175.09;5076628;28;20425;-37
2023/06/19 07:27:29;;;;;;;5.80;5.20;;;;;;;21.78;77.86;101184.91;5076647;28;20112;-37
2023/06/19 07:29:54;;;;;;;6.38;5.28;;;;;;;21.74;77.81;101175.59;5076090;28;20465;-37
2023/06/19 07:32:20;;;;;;;5.32;4.82;;;;;;;21.89;77.92;101193.00;5076377;28;20024;-37
2023/06/19 07:34:45;;;;;;;5.97;5.47;;;;;;;21.85;76.30;101196.34;5076296;28;20060;-37
2023/06/19 07:37:17;;;;;;;6.65;5.63;;;;;;;21.87;76.87;101190.56;5076458;28;20078;-37
2023/06/19 07:39:45;;;;;;;6.07;5.47;;;;;;;21.96;76.60;101194.28;5076800;28;20401;-37
2023/06/19 07:42:11;;;;;;;5.93;5.43;;;;;;;21.99;74.70;101203.84;5076576;28;20082;-37
2023/06/19 07:44:36;;;;;;;6.78;6.18;;;;;;;21.91;74.26;101212.78;5076091;28;20029;-37
2023/06/19 07:47:02;;;;;;;6.45;5.85;;;;;;;21.95;74.59;101205.56;5076331;28;20028;-37
2023/06/19 07:49:27;;;;;;;6.13;5.50;;;;;;;22.01;74.47;101207.97;5075789;28;20036;-37
2023/06/19 07:51:52;;;;;;;5.68;5.18;;;;;;;22.27;75.59;101204.81;5076455;28;20025;-37
2023/06/19 07:54:18;;;;;;;5.95;5.45;;;;;;;22.34;73.63;101199.72;5076148;28;20131;-37
2023/06/19 07:56:43;;;;;;;8.60;5.82;;;;;;;22.41;72.18;101191.91;5075836;28;20066;-37
2023/06/19 07:59:08;;;;;;;5.28;4.75;;;;;;;22.46;72.04;101202.03;5075530;28;20049;-37
2023/06/19 08:01:34;;;;;;;5.05;4.57;;;;;;;22.56;71.82;101207.38;5075778;28;20067;-37
2023/06/19 08:03:59;;;;;;;6.97;4.90;;;;;;;22.72;71.00;101186.66;5075643;28;20037;-37
2023/06/19 08:06:24;;;;;;;6.47;5.55;;;;;;;22.96;70.28;101208.56;5076111;28;20035;-37
2023/06/19 08:08:51;;;;;;;5.85;4.90;;;;;;;22.98;70.07;101208.25;5075716;28;20453;-37
2023/06/19 08:11:17;;;;;;;5.85;4.90;;;;;;;23.05;68.65;101203.16;5075331;28;20032;-37
2023/06/19 08:13:42;;;;;;;6.63;5.15;;;;;;;23.12;68.71;101212.66;5075326;28;20077;-37
2023/06/19 08:16:07;;;;;;;5.50;5.10;;;;;;;23.21;68.64;101210.00;5075977;28;20104;-37
2023/06/19 08:18:33;;;;;;;6.75;4.57;;;;;;;23.27;67.58;101206.00;5075964;28;20044;-37
2023/06/19 08:20:58;;;;;;;5.55;5.03;;;;;;;23.25;66.90;101212.97;5075504;28;20024;-37
2023/06/19 08:23:24;;;;;;;5.60;4.93;;;;;;;23.21;67.21;101203.66;5075270;28;20090;-37
2023/06/19 08:25:50;;;;;;;9.45;5.57;;;;;;;23.19;67.17;101226.06;5075656;28;20029;-37
2023/06/19 08:28:17;;;;;;;7.38;4.47;;;;;;;23.08;67.72;101214.41;5075239;28;20103;-37
2023/06/19 08:30:44;;;;;;;4.57;4.18;;;;;;;23.29;67.34;101214.81;5074929;28;20029;-37
2023/06/19 08:33:10;;;;;;;4.88;4.30;;;;;;;23.40;66.90;101209.88;5074905;28;20032;-37
2023/06/19 08:35:35;;;;;;;6.00;4.78;;;;;;;23.39;66.50;101195.28;5075915;28;20082;-37
2023/06/19 08:38:00;;;;;;;5.53;5.03;;;;;;;23.49;65.14;101212.75;5075113;28;20056;-37
2023/06/19 08:40:26;;;;;;;6.07;4.53;;;;;;;23.51;65.77;101205.78;5075715;28;20413;-37
2023/06/19 08:42:52;;;;;;;6.45;4.88;;;;;;;23.58;66.33;101206.19;5075008;28;20036;-37
2023/06/19 08:45:20;;;;;;;7.25;5.15;;;;;;;23.55;65.03;101215.06;5075664;28;20440;-37
2023/06/19 08:47:47;;;;;;;5.55;4.90;;;;;;;23.49;65.03;101232.88;5074846;28;20499;-37
2023/06/19 08:50:13;;;;;;;5.47;4.80;;;;;;;23.49;65.91;101237.59;5075093;28;20108;-37
2023/06/19 08:52:38;;;;;;;6.25;5.35;;;;;;;23.47;65.87;101231.53;5074762;28;20036;-37
2023/06/19 08:55:04;;;;;;;5.40;4.90;;;;;;;23.45;65.64;101240.13;5074454;28;20043;-38
2023/06/19 08:57:42;;;;;;;5.63;4.80;;;;;;;23.46;65.14;101246.47;5074639;28;20021;-37
2023/06/19 09:00:10;;;;;;;5.45;4.70;;;;;;;23.55;64.95;101231.63;5074155;28;20071;-37
2023/06/19 09:02:46;;;;;;;6.53;5.13;;;;;;;23.75;64.71;101233.16;5074827;28;20111;-37
2023/06/19 09:05:18;;;;;;;6.70;4.68;;;;;;;23.81;64.29;101242.97;5074226;28;20058;-37
2023/06/19 09:07:53;;;;;;;6.10;4.78;;;;;;;23.98;63.28;101242.31;5074740;28;20505;-38
2023/06/19 09:10:19;;;;;;;6.20;5.00;;;;;;;24.13;62.66;101250.25;5074700;28;20129;-37
2023/06/19 09:12:57;;;;;;;7.18;4.80;;;;;;;24.18;62.23;101265.88;5073575;28;20654;-37
2023/06/19 09:15:23;;;;;;;7.22;5.10;;;;;;;24.26;62.01;101259.63;5074311;28;20491;-37
2023/06/19 09:18:02;;;;;;;8.30;5.20;;;;;;;24.11;61.57;101262.75;5075017;28;20047;-37
2023/06/19 09:20:28;;;;;;;5.53;4.70;;;;;;;24.04;60.47;101273.41;5074600;28;20033;-37
2023/06/19 09:22:55;;;;;;;9.00;5.55;;;;;;;24.05;60.78;101270.31;5074263;28;20024;-37
2023/06/19 09:25:21;;;;;;;5.03;4.55;;;;;;;24.22;60.36;101264.13;5074134;28;20039;-37
2023/06/19 09:27:47;;;;;;;5.38;4.88;;;;;;;24.29;59.41;101275.56;5074582;28;20108;-37
2023/06/19 09:30:15;;;;;;;5.20;4.70;;;;;;;24.48;58.53;101274.59;5073826;28;20111;-37
2023/06/19 09:32:40;;;;;;;5.22;4.72;;;;;;;24.65;58.79;101274.72;5073711;28;20039;-37
2023/06/19 09:35:06;;;;;;;5.32;4.82;;;;;;;24.75;59.13;101265.34;5073677;28;20028;-37
2023/06/19 09:37:31;;;;;;;6.75;4.72;;;;;;;24.91;59.30;101272.91;5073888;28;20464;-37
2023/06/19 09:40:09;;;;;;;6.63;5.03;;;;;;;25.16;57.67;101270.63;5073581;28;20097;-37
2023/06/19 09:42:36;;;;;;;7.88;5.28;;;;;;;25.34;57.49;101275.09;5073341;28;20468;-37
2023/06/19 09:45:09;;;;;;;7.57;4.78;;;;;;;25.35;58.41;101270.38;5073268;28;20372;-37
2023/06/19 09:47:37;;;;;;;5.20;4.70;;;;;;;25.46;57.08;101274.47;5074340;28;20415;-37
2023/06/19 09:50:04;;;;;;;6.72;4.75;;;;;;;25.60;56.90;101279.88;5073352;28;20432;-37
2023/06/19 09:52:29;;;;;;;7.78;4.70;;;;;;;25.68;55.82;101277.16;5073574;28;20082;-37
2023/06/19 09:54:57;;;;;;;5.80;4.70;;;;;;;25.57;55.03;101266.69;5073237;28;20021;-37
2023/06/19 09:57:23;;;;;;;4.97;4.25;;;;;;;25.70;54.23;101287.91;5073163;28;20473;-37
2023/06/19 09:59:58;;;;;;;6.60;4.30;;;;;;;25.63;54.77;101284.78;5073436;28;20045;-37
2023/06/19 10:02:26;;;;;;;4.97;4.18;;;;;;;25.45;55.75;101272.03;5073092;28;20048;-37
2023/06/19 10:04:56;;;;;;;6.90;4.25;;;;;;;25.50;55.68;101292.06;5074035;28;20357;-37
2023/06/19 10:07:23;;;;;;;4.80;4.18;;;;;;;25.47;55.12;101287.16;5074029;28;20058;-37
2023/06/19 10:10:09;;;;;;;4.97;4.47;;;;;;;25.39;56.48;101280.50;5072987;28;20032;-38
2023/06/19 10:12:45;;;;;;;5.30;4.80;;;;;;;25.36;56.45;101270.03;5073498;28;20044;-38
2023/06/19 10:15:11;;;;;;;;;;;;;;;25.63;56.19;101287.56;5073494;28;20025;-38
2023/06/19 10:17:37;;;;;;;6.47;5.25;;;;;;;25.49;55.28;101290.44;5073145;28;19912;-38
2023/06/19 10:20:03;;;;;;;5.00;4.10;;;;;;;25.66;55.60;101290.47;5072986;28;20024;-38
2023/06/19 10:22:31;;;;;;;6.95;4.93;;;;;;;25.70;54.59;101290.66;5072743;28;20063;-37
2023/06/19 10:24:57;;;;;;;6.72;5.03;;;;;;;25.86;54.32;101286.31;5073012;28;20025;-37
2023/06/19 10:27:24;;;;;;;5.07;4.53;;;;;;;25.89;53.51;101282.91;5073527;28;20478;-37
2023/06/19 10:29:54;;;;;;;6.95;4.78;;;;;;;25.76;54.20;101272.78;5073117;28;20043;-37
2023/06/19 10:32:20;;;;;;;6.32;4.32;;;;;;;25.97;53.88;101277.72;5072891;28;20036;-37
2023/06/19 10:34:48;;;;;;;6.05;5.45;;;;;;;25.84;53.35;101291.38;5072946;28;20049;-37
2023/06/19 10:37:17;;;;;;;5.95;5.07;;;;;;;26.01;53.07;101287.84;5072963;28;20035;-36
2023/06/19 10:39:43;;;;;;;7.22;5.20;;;;;;;26.08;53.89;101290.09;5073469;28;20033;-36
2023/06/19 10:42:09;;;;;;;7.07;5.32;;;;;;;26.06;52.78;101295.13;5073100;28;20086;-37
2023/06/19 10:44:36;;;;;;;5.93;4.85;;;;;;;26.10;52.89;101288.63;5072828;28;20029;-37
2023/06/19 10:47:02;;;;;;;7.57;5.18;;;;;;;26.11;51.93;101289.47;5072759;28;20028;-37
2023/06/19 10:49:28;;;;;;;7.38;4.90;;;;;;;26.22;51.25;101290.75;5072694;28;20082;-37
2023/06/19 10:51:58;;;;;;;6.22;4.32;;;;;;;26.30;50.91;101283.56;5072710;28;20471;-37
2023/06/19 10:54:24;;;;;;;6.15;4.35;;;;;;;26.39;50.33;101289.94;5072660;28;20414;-36
2023/06/19 10:56:51;;;;;;;6.22;4.82;;;;;;;26.28;50.86;101289.47;5073108;28;20070;-37
2023/06/19 10:59:16;;;;;;;6.60;4.57;;;;;;;26.25;50.48;101292.88;5072394;28;20052;-36
2023/06/19 11:01:45;;;;;;;5.95;5.35;;;;;;;26.09;51.72;101287.00;5073032;28;20058;-37
2023/06/19 11:04:12;;;;;;;4.95;4.38;;;;;;;26.10;50.60;101282.28;5072561;28;20101;-36
2023/06/19 11:06:38;;;;;;;4.85;4.20;;;;;;;25.94;49.40;101290.25;5072393;28;20434;-36
2023/06/19 11:09:08;;;;;;;8.82;4.32;;;;;;;25.94;49.69;101288.28;5072989;28;20024;-36
2023/06/19 11:11:37;;;;;;;5.85;4.43;;;;;;;25.83;51.51;101284.22;5072583;28;20025;-36
2023/06/19 11:14:03;;;;;;;6.13;4.85;;;;;;;26.01;49.53;101287.84;5072569;28;20469;-37
2023/06/19 11:16:28;;;;;;;5.50;4.93;;;;;;;26.22;50.21;101287.19;5072756;28;20112;-37
2023/06/19 11:18:57;;;;;;;6.53;4.78;;;;;;;26.31;50.33;101286.03;5104547;28;20078;-37
2023/06/19 11:21:37;;;;;;;6.85;4.60;;;;;;;26.61;50.29;101277.88;5072701;28;20025;-37